Dover Air Force Base
KDOV : now visible

Airfield :











YOU CAN JOIN US ON...

 
LOGIN :

Register | Disclaimer

   EN    FR    IT 

 









Legend :    VFR   Marginal VFR   IFR   Intensive IFR   Very Intensive IFR
Visi :
Ceiling :
>= 8 km
>= 3000ft
5 to 8 km
1000 to 3000 ft
1500m to 5 km
500 to 1000 ft
800 to 1500m
200 to 500 ft
< 800m
< 200 ft
Symbols :   Thunderstorms  Fog  Heavy snow  Heavy precipitations  Wind > 20 kt







- Airport Elevation : 24 ft


KDOV - Dover Air Force Base

CURRENT METAR :
  • 260256Z AUTO 04008KT 10SM BKN055 20/16 A3018 RMK AO2 SLP223 T01950157 50002 $

EXPIRED METARs :
  • 260156Z AUTO 04012KT 10SM OVC050 20/15 A3019 RMK AO2 SLP226 T02020152 $
  • 260056Z AUTO 05012KT 10SM CLR 20/14 A3018 RMK AO2 SLP223 T02010140 $

TAF TAF KDOV
Valid from the 26 at 00:00 until the 27 at 06:00 UTC


260000Z 2600/2706 05012G20KT 9999 BKN040 QNH3017INS
BECMG 2602/2603 05015G25KT 9999 BKN020 BKN040 QNH3015INS
BECMG 2608/2609 04015G25KT 9999 BKN015 BKN030 QNH3015INS
BECMG 2614/2615 06012G20KT 9999 BKN020 OVC030 QNH3016INS
BECMG 2617/2618 06012G18KT 9999 SCT020 BKN040 QNH3012INS
BECMG 2623/2624 06012KT 9999 BKN040 QNH3011INS
BECMG 2702/2703 06012KT 9999 BKN015 BKN040 QNH3011INS TX24/2620Z TN15/2610Z
No reported NOTAMs for that airfield.



MET'MAP, your aeronautical weather chart ! - Copyright ORBIFLY December 2007 - Disclaimer

ORBIFLY MET'MAP TEAM :

Programming & Development : Alexandra Zaïnal
Concept & Development : Baudouin d'Aumeries
Co-Development & Prog : Marc-Olivier Méhu
Technical & hardware support : Manuel Goepfert

Contact : metmap@orbifly.com




SOURCES & CREDITS :

   NOAA       Earth
Advisory